Time;durP1;ratioP1;P1;durP2;ratioP2;P2;SDS_P1;SDS_P2;PMS_P1;PMS_P2;Temp;Humidity;BMP_temperature;BMP_pressure;BME280_temperature;BME280_humidity;BME280_pressure;Samples;Min_cycle;Max_cycle;Signal;HPM_P1;HPM_P2
2023/06/30 00:01:48;;;;;;;2.90;1.40;;;22.80;60.10;;;;;;5052563;28;20179;-70
2023/06/30 00:04:17;;;;;;;1.40;1.20;;;22.80;60.20;;;;;;5051579;28;20190;-70
2023/06/30 00:06:49;;;;;;;2.38;1.45;;;22.80;60.20;;;;;;5052778;28;20183;-70
2023/06/30 00:09:19;;;;;;;1.20;1.10;;;22.80;60.20;;;;;;5052436;28;20189;-69
2023/06/30 00:11:45;;;;;;;1.52;1.20;;;22.70;60.00;;;;;;5051905;28;20168;-69
2023/06/30 00:14:11;;;;;;;3.60;1.40;;;22.80;60.20;;;;;;5051968;28;20261;-69
2023/06/30 00:16:36;;;;;;;1.65;1.17;;;22.80;60.20;;;;;;5052697;28;20175;-68
2023/06/30 00:19:02;;;;;;;1.98;1.48;;;22.70;60.10;;;;;;5051403;28;20575;-68
2023/06/30 00:21:27;;;;;;;1.45;1.02;;;22.70;60.10;;;;;;5052371;28;20630;-69
2023/06/30 00:23:53;;;;;;;2.70;1.30;;;22.70;60.00;;;;;;5052362;28;20175;-68
2023/06/30 00:26:18;;;;;;;2.58;1.38;;;22.80;60.10;;;;;;5054318;28;20707;-68
2023/06/30 00:28:44;;;;;;;1.30;1.20;;;22.70;60.00;;;;;;5056567;28;20535;-68
2023/06/30 00:31:10;;;;;;;1.73;1.42;;;22.70;60.00;;;;;;5056112;28;20595;-70
2023/06/30 00:33:35;;;;;;;1.70;1.40;;;22.70;60.00;;;;;;5055617;28;20286;-70
2023/06/30 00:36:01;;;;;;;3.13;1.23;;;22.70;60.00;;;;;;5056083;28;20206;-70
2023/06/30 00:38:26;;;;;;;1.63;1.17;;;22.70;60.00;;;;;;5056265;28;20704;-68
2023/06/30 00:40:52;;;;;;;2.55;1.45;;;22.70;60.00;;;;;;5055709;28;20548;-68
2023/06/30 00:43:17;;;;;;;1.50;1.10;;;22.70;59.90;;;;;;5056127;28;20513;-69
2023/06/30 00:45:43;;;;;;;2.08;1.40;;;22.70;59.90;;;;;;5055519;28;20637;-69
2023/06/30 00:48:08;;;;;;;1.90;1.20;;;22.70;59.90;;;;;;5055843;28;20171;-69
2023/06/30 00:50:34;;;;;;;2.20;1.08;;;22.70;59.90;;;;;;5038496;28;20171;-69
2023/06/30 00:53:00;;;;;;;2.55;1.55;;;22.70;60.00;;;;;;5054910;28;20175;-70
2023/06/30 00:55:26;;;;;;;1.80;1.50;;;22.70;59.90;;;;;;5055808;28;20223;-69
2023/06/30 00:57:51;;;;;;;2.80;1.42;;;22.70;59.90;;;;;;5056091;28;20186;-69
2023/06/30 01:00:17;;;;;;;2.83;1.27;;;22.70;59.90;;;;;;5054953;28;20245;-69
2023/06/30 01:03:05;;;;;;;3.30;1.60;;;22.60;59.80;;;;;;5054639;28;20706;-69
2023/06/30 01:05:47;;;;;;;3.78;1.48;;;22.60;59.80;;;;;;5054507;28;20183;-69
2023/06/30 01:08:21;;;;;;;2.40;1.50;;;22.60;59.80;;;;;;5053730;28;20175;-69
2023/06/30 01:10:46;;;;;;;1.85;1.20;;;22.60;59.80;;;;;;5038433;28;20179;-68
2023/06/30 01:13:12;;;;;;;1.88;1.30;;;22.60;59.80;;;;;;5054001;28;20175;-68
2023/06/30 01:15:37;;;;;;;3.47;1.40;;;22.60;59.80;;;;;;5053366;28;20227;-68
2023/06/30 01:18:03;;;;;;;1.40;1.30;;;22.60;59.70;;;;;;5037135;28;20667;-68
2023/06/30 01:20:29;;;;;;;2.38;1.33;;;22.60;59.70;;;;;;5054004;28;20187;-68
2023/06/30 01:23:19;;;;;;;3.03;1.30;;;22.60;59.80;;;;;;5053345;28;20178;-67
2023/06/30 01:25:45;;;;;;;2.85;1.50;;;22.60;59.70;;;;;;5055437;28;20309;-68
2023/06/30 01:28:11;;;;;;;2.33;1.38;;;22.60;59.70;;;;;;5053137;28;20232;-69
2023/06/30 01:30:36;;;;;;;2.20;1.40;;;22.60;60.50;;;;;;5053963;28;20180;-69
2023/06/30 01:33:02;;;;;;;1.67;1.30;;;22.60;59.70;;;;;;5053915;28;20217;-70
2023/06/30 01:35:28;;;;;;;1.67;1.33;;;22.60;59.70;;;;;;5054524;28;20670;-69
2023/06/30 01:37:54;;;;;;;2.67;1.55;;;22.60;59.70;;;;;;5054197;28;20688;-68
2023/06/30 01:40:20;;;;;;;1.85;1.33;;;22.60;59.70;;;;;;5054645;28;20219;-68
2023/06/30 01:42:46;;;;;;;1.58;1.15;;;22.60;59.80;;;;;;5054488;28;20178;-68
2023/06/30 01:45:11;;;;;;;2.22;1.30;;;22.50;59.70;;;;;;5054656;28;20546;-69
2023/06/30 01:47:37;;;;;;;4.28;1.80;;;22.50;59.60;;;;;;5053574;28;20623;-69
2023/06/30 01:50:03;;;;;;;3.22;1.58;;;22.50;59.70;;;;;;5053858;28;20224;-69
2023/06/30 01:52:29;;;;;;;1.60;1.50;;;22.50;59.80;;;;;;5054635;28;20566;-69
2023/06/30 01:54:54;;;;;;;1.95;1.40;;;22.50;59.60;;;;;;5054704;28;20222;-69
2023/06/30 01:57:20;;;;;;;3.17;1.60;;;22.50;59.60;;;;;;5052273;28;20178;-69
2023/06/30 01:59:45;;;;;;;2.05;1.50;;;22.50;59.60;;;;;;5054549;28;20179;-69
2023/06/30 02:02:11;;;;;;;3.90;1.40;;;22.50;59.60;;;;;;5054520;28;20267;-69
2023/06/30 02:04:37;;;;;;;2.83;1.70;;;22.50;59.60;;;;;;5054056;28;20571;-70
2023/06/30 02:07:02;;;;;;;1.80;1.27;;;22.50;59.50;;;;;;5054478;28;20258;-70
2023/06/30 02:09:28;;;;;;;1.77;1.17;;;22.50;59.50;;;;;;5054879;28;20179;-69
2023/06/30 02:11:54;;;;;;;2.05;1.48;;;22.50;59.50;;;;;;5053664;28;20179;-68
2023/06/30 02:14:19;;;;;;;4.20;1.90;;;22.50;59.50;;;;;;5054020;28;20617;-68
2023/06/30 02:16:45;;;;;;;2.72;1.50;;;22.50;59.50;;;;;;5054572;28;20650;-69
2023/06/30 02:19:10;;;;;;;2.13;1.40;;;22.50;59.50;;;;;;5053294;28;20175;-68
2023/06/30 02:21:36;;;;;;;1.73;1.27;;;22.50;59.60;;;;;;5054299;28;20175;-69
2023/06/30 02:24:02;;;;;;;2.78;1.30;;;22.40;59.60;;;;;;5053831;28;20175;-68
2023/06/30 02:26:27;;;;;;;2.92;1.35;;;22.50;59.50;;;;;;5053423;28;20175;-68
2023/06/30 02:28:53;;;;;;;3.53;1.70;;;22.50;59.50;;;;;;5053768;28;20175;-68
2023/06/30 02:31:18;;;;;;;2.92;1.63;;;22.40;59.60;;;;;;5053279;28;20638;-70
2023/06/30 02:33:44;;;;;;;3.72;1.73;;;22.40;59.50;;;;;;5053861;28;20203;-69
2023/06/30 02:36:10;;;;;;;2.75;1.10;;;22.40;59.50;;;;;;5053919;28;20191;-69
2023/06/30 02:38:35;;;;;;;2.83;1.60;;;22.40;59.50;;;;;;5052938;28;20318;-68
2023/06/30 02:41:01;;;;;;;2.15;1.30;;;22.40;59.60;;;;;;5053915;28;20171;-69
2023/06/30 02:43:26;;;;;;;2.70;1.50;;;22.40;59.60;;;;;;5053734;28;20217;-69
2023/06/30 02:45:52;;;;;;;3.45;1.65;;;22.40;59.40;;;;;;5053021;28;20186;-69
2023/06/30 02:48:17;;;;;;;3.55;1.63;;;22.40;59.50;;;;;;5053345;28;20645;-68
2023/06/30 02:50:43;;;;;;;1.90;1.63;;;22.40;59.50;;;;;;5053809;28;20242;-68
2023/06/30 02:53:09;;;;;;;2.00;1.55;;;22.40;59.50;;;;;;5052511;28;20185;-69
2023/06/30 02:55:36;;;;;;;2.75;1.45;;;22.40;59.40;;;;;;5053365;28;20677;-69
2023/06/30 02:58:02;;;;;;;3.40;1.88;;;22.30;59.40;;;;;;5053195;28;20251;-69
2023/06/30 03:00:27;;;;;;;4.72;2.03;;;22.30;59.40;;;;;;5052762;28;20269;-69
2023/06/30 03:02:53;;;;;;;3.00;1.30;;;22.30;59.50;;;;;;5053411;28;20175;-69
2023/06/30 03:05:18;;;;;;;2.65;1.70;;;22.30;59.60;;;;;;5053168;28;20175;-70
2023/06/30 03:07:44;;;;;;;1.92;1.45;;;22.30;59.60;;;;;;5052906;28;20171;-69
2023/06/30 03:10:10;;;;;;;2.05;1.48;;;22.30;59.70;;;;;;5053131;28;20209;-69
2023/06/30 03:12:35;;;;;;;2.95;1.63;;;22.30;59.60;;;;;;5053429;28;20222;-68
2023/06/30 03:15:01;;;;;;;1.70;1.45;;;22.30;59.70;;;;;;5052102;28;20264;-68
2023/06/30 03:17:26;;;;;;;1.83;1.27;;;22.30;59.70;;;;;;5053398;28;20199;-68
2023/06/30 03:19:52;;;;;;;1.83;1.58;;;22.30;59.70;;;;;;5053078;28;20545;-68
2023/06/30 03:22:17;;;;;;;2.92;1.90;;;22.30;59.70;;;;;;5052104;28;20187;-68
2023/06/30 03:24:43;;;;;;;1.77;1.20;;;22.30;59.60;;;;;;5053244;28;20182;-67
2023/06/30 03:27:08;;;;;;;2.75;1.80;;;22.30;59.60;;;;;;5052812;28;20179;-69
2023/06/30 03:29:34;;;;;;;2.00;1.40;;;22.30;59.60;;;;;;5052143;28;20183;-69
2023/06/30 03:31:59;;;;;;;2.50;1.50;;;22.30;59.60;;;;;;5052631;28;20179;-69
2023/06/30 03:34:25;;;;;;;2.40;1.70;;;22.30;59.60;;;;;;5052900;28;20306;-70
2023/06/30 03:36:50;;;;;;;3.10;1.80;;;22.30;59.60;;;;;;5052388;28;20186;-68
2023/06/30 03:39:16;;;;;;;4.05;1.85;;;22.20;59.50;;;;;;5052565;28;20600;-68
2023/06/30 03:41:42;;;;;;;1.88;1.48;;;22.30;59.60;;;;;;5052068;28;20163;-68
2023/06/30 03:44:07;;;;;;;2.80;1.50;;;22.30;59.60;;;;;;5052348;28;20221;-68
2023/06/30 03:46:33;;;;;;;1.42;1.15;;;22.30;59.50;;;;;;5053021;28;20175;-69
2023/06/30 03:48:58;;;;;;;3.42;1.42;;;22.30;59.50;;;;;;5051923;28;20188;-68
2023/06/30 03:51:24;;;;;;;1.90;1.65;;;22.30;59.50;;;;;;5052955;28;20664;-69
2023/06/30 03:53:50;;;;;;;1.52;1.42;;;22.20;59.40;;;;;;5052749;28;20198;-69
2023/06/30 03:56:15;;;;;;;2.22;1.42;;;22.20;59.40;;;;;;5051630;28;20183;-68
2023/06/30 03:58:41;;;;;;;2.15;1.23;;;22.20;59.40;;;;;;5052438;28;20174;-69
2023/06/30 04:01:06;;;;;;;2.00;1.40;;;22.20;59.40;;;;;;5057370;28;20170;-69
2023/06/30 04:03:33;;;;;;;2.42;1.40;;;22.20;59.40;;;;;;5058812;28;20177;-69
2023/06/30 04:05:58;;;;;;;3.33;1.70;;;22.20;59.40;;;;;;5059206;28;20171;-70
2023/06/30 04:08:24;;;;;;;1.48;1.33;;;22.20;59.30;;;;;;5059181;28;20225;-69
2023/06/30 04:10:49;;;;;;;1.45;1.15;;;22.20;59.20;;;;;;5058506;28;20645;-68
2023/06/30 04:13:15;;;;;;;2.40;1.42;;;22.30;59.30;;;;;;5058820;28;20190;-69
2023/06/30 04:15:40;;;;;;;2.45;1.48;;;22.20;59.70;;;;;;5059257;28;20679;-68
2023/06/30 04:18:06;;;;;;;2.60;1.30;;;22.20;59.10;;;;;;5058253;28;20574;-67
2023/06/30 04:20:31;;;;;;;2.83;1.50;;;22.20;59.10;;;;;;5059279;28;20179;-67
2023/06/30 04:22:57;;;;;;;2.03;1.15;;;22.20;59.10;;;;;;5059011;28;20193;-67
2023/06/30 04:25:23;;;;;;;2.90;1.67;;;22.20;59.10;;;;;;5058457;28;20186;-67
2023/06/30 04:27:48;;;;;;;2.78;1.50;;;22.20;58.90;;;;;;5058925;28;20175;-68
2023/06/30 04:30:14;;;;;;;1.27;1.10;;;22.20;59.00;;;;;;5058959;28;20208;-69
2023/06/30 04:32:39;;;;;;;1.85;1.50;;;22.20;58.90;;;;;;5058504;28;20171;-68
2023/06/30 04:35:05;;;;;;;2.10;1.50;;;22.20;59.60;;;;;;5058736;28;20207;-69
2023/06/30 04:37:30;;;;;;;2.13;1.63;;;22.20;58.90;;;;;;5058920;28;20220;-68
2023/06/30 04:39:57;;;;;;;1.73;1.33;;;22.20;58.90;;;;;;5057781;28;20226;-68
2023/06/30 04:42:22;;;;;;;2.78;1.27;;;22.20;58.90;;;;;;5058948;28;20637;-68
2023/06/30 04:44:48;;;;;;;3.22;1.70;;;22.20;58.90;;;;;;5058696;28;20651;-67
2023/06/30 04:47:16;;;;;;;3.45;1.70;;;22.20;59.00;;;;;;5058725;28;20285;-70
2023/06/30 04:49:42;;;;;;;1.35;1.25;;;22.20;59.00;;;;;;5059006;28;20300;-68
2023/06/30 04:52:07;;;;;;;1.95;1.45;;;22.20;59.60;;;;;;5057737;28;20963;-68
2023/06/30 04:54:33;;;;;;;1.88;1.30;;;22.20;58.90;;;;;;5058867;28;20207;-68
2023/06/30 04:56:58;;;;;;;2.38;1.35;;;22.20;58.80;;;;;;5058403;28;20167;-68
2023/06/30 04:59:24;;;;;;;2.03;1.30;;;22.20;58.80;;;;;;5058155;28;20622;-68
2023/06/30 05:01:49;;;;;;;1.48;1.38;;;22.20;58.80;;;;;;5058874;28;20582;-69
2023/06/30 05:04:16;;;;;;;2.85;1.52;;;22.30;58.70;;;;;;5058643;28;20193;-69
2023/06/30 05:06:41;;;;;;;1.30;1.20;;;22.30;58.70;;;;;;5058100;28;20202;-69
2023/06/30 05:09:07;;;;;;;2.28;1.50;;;22.20;58.70;;;;;;5058431;28;20630;-68
2023/06/30 05:11:32;;;;;;;2.22;1.35;;;22.20;58.80;;;;;;5056202;28;20190;-68
2023/06/30 05:13:58;;;;;;;2.60;1.67;;;22.30;58.80;;;;;;5054349;28;20213;-67
2023/06/30 05:16:23;;;;;;;2.10;1.40;;;22.20;58.60;;;;;;5055627;28;20183;-68
2023/06/30 05:18:49;;;;;;;2.08;1.27;;;22.30;58.80;;;;;;5055489;28;20642;-67
2023/06/30 05:21:14;;;;;;;1.95;1.30;;;22.30;58.70;;;;;;5054406;28;20232;-68
2023/06/30 05:23:43;;;;;;;3.50;1.50;;;22.30;58.60;;;;;;5055232;28;20175;-68
2023/06/30 05:26:09;;;;;;;2.85;1.77;;;22.30;58.70;;;;;;5054687;28;20179;-68
2023/06/30 05:28:35;;;;;;;2.05;1.10;;;22.30;58.60;;;;;;5054433;28;20212;-68
2023/06/30 05:31:00;;;;;;;2.38;1.25;;;22.30;58.60;;;;;;5055108;28;20175;-70
2023/06/30 05:33:26;;;;;;;1.30;1.20;;;22.30;58.60;;;;;;5055030;28;20194;-69
2023/06/30 05:35:51;;;;;;;2.33;1.45;;;22.30;58.60;;;;;;5054435;28;20652;-69
2023/06/30 05:38:17;;;;;;;4.15;1.63;;;22.30;58.60;;;;;;5054548;28;20176;-67
2023/06/30 05:40:42;;;;;;;2.17;1.30;;;22.30;58.70;;;;;;5054947;28;20179;-68
2023/06/30 05:43:09;;;;;;;1.55;1.25;;;22.30;58.70;;;;;;5054143;28;20257;-68
2023/06/30 05:45:35;;;;;;;2.38;1.60;;;22.30;58.70;;;;;;5054778;28;20179;-68
2023/06/30 05:48:00;;;;;;;1.75;1.30;;;22.30;58.70;;;;;;5054624;28;20171;-69
2023/06/30 05:50:27;;;;;;;2.33;1.25;;;22.30;58.70;;;;;;5054148;28;20175;-68
2023/06/30 05:52:53;;;;;;;2.15;1.52;;;22.30;58.70;;;;;;5054731;28;20203;-69
2023/06/30 05:55:18;;;;;;;1.30;1.20;;;22.30;58.60;;;;;;5053683;28;20242;-69
2023/06/30 05:57:44;;;;;;;2.05;1.30;;;22.30;58.70;;;;;;5054766;28;20249;-68
2023/06/30 06:00:10;;;;;;;2.88;1.40;;;22.30;58.70;;;;;;5054282;28;20179;-69
2023/06/30 06:02:36;;;;;;;1.40;1.23;;;22.30;58.60;;;;;;5054041;28;20569;-68
2023/06/30 06:05:02;;;;;;;2.42;1.52;;;22.30;58.60;;;;;;5054327;28;20233;-69
2023/06/30 06:07:27;;;;;;;1.25;1.15;;;22.30;58.70;;;;;;5054373;28;20178;-69
2023/06/30 06:09:53;;;;;;;4.43;1.40;;;22.30;58.60;;;;;;5053888;28;20171;-68
2023/06/30 06:12:18;;;;;;;1.75;1.10;;;22.30;58.60;;;;;;5054186;28;20654;-67
2023/06/30 06:14:44;;;;;;;3.22;1.33;;;22.30;58.60;;;;;;5054415;28;20272;-68
2023/06/30 06:17:10;;;;;;;2.30;1.40;;;22.30;58.60;;;;;;5053219;28;20186;-69
2023/06/30 06:19:35;;;;;;;1.20;1.02;;;22.40;58.70;;;;;;5054375;28;20258;-68
2023/06/30 06:22:01;;;;;;;2.17;1.30;;;22.30;58.60;;;;;;5054009;28;20567;-67
2023/06/30 06:24:26;;;;;;;1.63;1.10;;;22.30;58.60;;;;;;5053085;28;20182;-68
2023/06/30 06:26:52;;;;;;;2.80;1.40;;;22.40;58.50;;;;;;5054292;28;20171;-69
2023/06/30 06:29:21;;;;;;;1.70;1.35;;;22.30;58.50;;;;;;5053885;28;20175;-69
2023/06/30 06:31:48;;;;;;;1.38;1.20;;;22.30;58.50;;;;;;5053284;28;20171;-68
2023/06/30 06:34:14;;;;;;;2.17;1.40;;;22.40;58.50;;;;;;5053620;28;20219;-68
2023/06/30 06:36:40;;;;;;;2.35;1.20;;;22.40;58.50;;;;;;5054176;28;20242;-69
2023/06/30 06:39:05;;;;;;;2.08;1.13;;;22.40;58.40;;;;;;5052574;28;20250;-69
2023/06/30 06:41:32;;;;;;;1.30;1.20;;;22.40;58.40;;;;;;5054122;28;20171;-69
2023/06/30 06:43:57;;;;;;;2.00;1.30;;;22.40;58.40;;;;;;5053612;28;20254;-69
2023/06/30 06:46:23;;;;;;;1.70;1.30;;;22.40;59.00;;;;;;5052979;28;20310;-68
2023/06/30 06:48:48;;;;;;;1.48;1.20;;;22.30;58.30;;;;;;5053674;28;20182;-67
2023/06/30 06:51:14;;;;;;;1.63;1.00;;;22.40;58.40;;;;;;5053372;28;20179;-68
2023/06/30 06:53:39;;;;;;;2.10;1.23;;;22.40;58.30;;;;;;5053009;28;20175;-69
2023/06/30 06:56:05;;;;;;;2.53;1.33;;;22.40;58.30;;;;;;5053403;28;20638;-70
2023/06/30 06:58:32;;;;;;;2.08;1.35;;;22.40;58.20;;;;;;5052521;28;20510;-68
2023/06/30 07:00:58;;;;;;;2.63;1.15;;;22.40;58.20;;;;;;5052906;28;20642;-68
2023/06/30 07:03:23;;;;;;;3.00;1.42;;;22.40;58.20;;;;;;5053380;28;20186;-69
2023/06/30 07:05:49;;;;;;;2.42;1.23;;;22.50;58.20;;;;;;5052668;28;20172;-69
2023/06/30 07:08:16;;;;;;;2.45;1.33;;;22.50;58.20;;;;;;5053084;28;20398;-69
2023/06/30 07:10:42;;;;;;;2.55;1.38;;;22.50;58.20;;;;;;5053508;28;20198;-67
2023/06/30 07:13:08;;;;;;;1.73;1.20;;;22.50;58.80;;;;;;5052453;28;20199;-68
2023/06/30 07:15:33;;;;;;;2.45;1.20;;;22.50;58.20;;;;;;5053206;28;20206;-68
2023/06/30 07:17:59;;;;;;;1.63;1.00;;;22.50;58.10;;;;;;5053043;28;20175;-67
2023/06/30 07:20:25;;;;;;;2.55;1.40;;;22.50;58.80;;;;;;5052497;28;20240;-66
2023/06/30 07:22:51;;;;;;;3.85;1.15;;;22.50;58.70;;;;;;5052981;28;20175;-67
2023/06/30 07:25:17;;;;;;;2.30;1.40;;;22.50;58.10;;;;;;5053004;28;20194;-67
2023/06/30 07:27:52;;;;;;;2.33;1.50;;;22.50;58.10;;;;;;5052365;28;20580;-67
2023/06/30 07:30:18;;;;;;;2.33;1.20;;;22.50;58.00;;;;;;5052852;28;20175;-69
2023/06/30 07:32:43;;;;;;;1.65;1.10;;;22.50;58.00;;;;;;5053151;28;20181;-69
2023/06/30 07:35:09;;;;;;;2.40;1.10;;;22.50;58.00;;;;;;5051145;28;20599;-69
2023/06/30 07:37:34;;;;;;;1.67;1.23;;;22.60;58.10;;;;;;5052834;28;20262;-68
2023/06/30 07:40:00;;;;;;;1.17;1.00;;;22.60;58.00;;;;;;5052301;28;20230;-67
2023/06/30 07:42:26;;;;;;;2.05;1.20;;;22.60;58.00;;;;;;5052073;28;20171;-67
2023/06/30 07:44:51;;;;;;;1.42;1.02;;;22.50;57.90;;;;;;5052649;28;20187;-67
2023/06/30 07:47:18;;;;;;;1.50;1.17;;;22.70;58.00;;;;;;5052569;28;20199;-68
2023/06/30 07:49:43;;;;;;;2.05;1.40;;;22.60;57.90;;;;;;5051871;28;20665;-75
2023/06/30 07:52:09;;;;;;;1.23;1.10;;;22.70;58.40;;;;;;5052573;28;20187;-67
2023/06/30 07:54:35;;;;;;;2.10;1.10;;;22.70;57.70;;;;;;5052758;28;20233;-67
2023/06/30 07:57:00;;;;;;;2.33;1.23;;;22.70;57.60;;;;;;5051085;28;20183;-68
2023/06/30 07:59:26;;;;;;;1.42;1.10;;;22.70;57.60;;;;;;5052164;28;20175;-68
2023/06/30 08:01:51;;;;;;;2.20;1.35;;;22.80;57.50;;;;;;5051561;28;20266;-68
2023/06/30 08:04:18;;;;;;;2.33;1.30;;;22.80;57.50;;;;;;5051748;28;20821;-67
2023/06/30 08:06:44;;;;;;;2.75;1.35;;;22.80;57.60;;;;;;5051824;28;20178;-66
2023/06/30 08:09:09;;;;;;;2.70;1.33;;;22.80;57.50;;;;;;5051409;28;20175;-66
2023/06/30 08:11:35;;;;;;;3.10;1.20;;;22.80;57.60;;;;;;5052625;28;20179;-67
2023/06/30 08:14:02;;;;;;;3.58;1.30;;;22.90;57.50;;;;;;5052085;28;20286;-68
2023/06/30 08:16:27;;;;;;;1.98;1.30;;;22.90;57.50;;;;;;5051901;28;20175;-68
2023/06/30 08:18:53;;;;;;;1.23;1.00;;;22.90;57.50;;;;;;5052794;28;20657;-67
2023/06/30 08:21:19;;;;;;;1.45;0.90;;;22.90;57.50;;;;;;5051760;28;20167;-68
2023/06/30 08:23:44;;;;;;;2.35;1.30;;;22.90;57.50;;;;;;5051566;28;20638;-67
2023/06/30 08:26:10;;;;;;;2.88;1.42;;;22.90;57.50;;;;;;5052057;28;20183;-68
2023/06/30 08:28:35;;;;;;;2.47;1.40;;;22.90;57.40;;;;;;5052306;28;20175;-69
2023/06/30 08:31:01;;;;;;;3.80;1.52;;;22.90;57.30;;;;;;5051602;28;20258;-72
2023/06/30 08:33:28;;;;;;;1.98;1.30;;;23.00;57.10;;;;;;5052151;28;20258;-70
2023/06/30 08:35:53;;;;;;;2.15;1.20;;;23.00;57.00;;;;;;5052515;28;20222;-69
2023/06/30 08:38:19;;;;;;;2.20;1.08;;;23.00;57.00;;;;;;5051356;28;20175;-68
2023/06/30 08:40:44;;;;;;;2.22;1.05;;;23.00;56.80;;;;;;5052458;28;20522;-68
2023/06/30 08:43:13;;;;;;;2.08;1.23;;;23.00;56.70;;;;;;5059871;28;20239;-69
2023/06/30 08:45:43;;;;;;;1.10;1.00;;;23.00;56.50;;;;;;5036650;28;20229;-70
2023/06/30 08:48:09;;;;;;;2.33;1.27;;;23.10;56.60;;;;;;5075591;28;20621;-68
2023/06/30 08:50:35;;;;;;;1.73;1.13;;;23.10;56.50;;;;;;5067876;28;20197;-69
2023/06/30 08:53:01;;;;;;;2.75;1.17;;;23.10;56.50;;;;;;5054889;28;20167;-68
2023/06/30 08:55:27;;;;;;;1.45;1.15;;;23.10;56.50;;;;;;5055722;28;20696;-69
2023/06/30 08:57:56;;;;;;;2.38;0.98;;;23.10;56.50;;;;;;5055716;28;20183;-68
2023/06/30 09:00:22;;;;;;;2.10;1.20;;;23.10;56.40;;;;;;5073328;28;20209;-70
2023/06/30 09:02:48;;;;;;;1.50;1.20;;;23.10;56.40;;;;;;5075681;28;20175;-69
2023/06/30 09:05:13;;;;;;;1.30;1.15;;;23.20;56.40;;;;;;5074888;28;20274;-70
2023/06/30 09:07:41;;;;;;;2.45;0.93;;;23.20;56.40;;;;;;5075825;28;20265;-69
2023/06/30 09:10:09;;;;;;;1.25;0.98;;;23.20;56.30;;;;;;5073978;28;20257;-69
2023/06/30 09:12:34;;;;;;;3.45;1.00;;;23.20;56.30;;;;;;5057188;28;20187;-68
2023/06/30 09:15:00;;;;;;;1.35;1.10;;;23.20;56.30;;;;;;5073934;28;20221;-68
2023/06/30 09:17:28;;;;;;;1.95;1.00;;;23.20;56.40;;;;;;5055619;28;20171;-67
2023/06/30 09:19:54;;;;;;;1.65;1.00;;;23.20;56.40;;;;;;5054116;28;20413;-67
2023/06/30 09:22:20;;;;;;;2.33;1.35;;;23.20;56.60;;;;;;5055256;28;20183;-68
2023/06/30 09:24:47;;;;;;;2.05;1.65;;;23.20;55.30;;;;;;5055301;28;20175;-65
2023/06/30 09:27:12;;;;;;;3.88;1.80;;;23.20;55.40;;;;;;5054299;28;20246;-67
2023/06/30 09:29:38;;;;;;;1.63;1.52;;;23.20;55.50;;;;;;5053459;28;20280;-67
2023/06/30 09:32:05;;;;;;;2.53;1.48;;;23.30;55.60;;;;;;5054699;28;20193;-68
2023/06/30 09:34:30;;;;;;;2.95;1.70;;;23.30;55.60;;;;;;5053545;28;20573;-66
2023/06/30 09:36:56;;;;;;;4.55;1.85;;;23.30;55.50;;;;;;5053817;28;20172;-68
2023/06/30 09:39:22;;;;;;;3.22;1.50;;;23.30;55.60;;;;;;5054723;28;20230;-67
2023/06/30 09:41:48;;;;;;;4.40;1.98;;;23.20;54.60;;;;;;5054162;28;20626;-66
2023/06/30 09:44:17;;;;;;;2.47;1.77;;;23.30;55.10;;;;;;5054598;28;20179;-67
2023/06/30 09:46:50;;;;;;;3.72;1.40;;;23.30;55.30;;;;;;5054936;28;20258;-67
2023/06/30 09:49:34;;;;;;;3.20;1.70;;;23.30;55.30;;;;;;5054045;28;20636;-67
2023/06/30 09:52:06;;;;;;;1.95;1.60;;;23.30;56.00;;;;;;5034764;28;20188;-66
2023/06/30 09:54:33;;;;;;;2.33;1.65;;;23.40;55.50;;;;;;5033977;28;20206;-66
2023/06/30 09:57:08;;;;;;;2.78;1.70;;;23.50;55.70;;;;;;5034433;28;20627;-67
2023/06/30 09:59:33;;;;;;;2.80;1.30;;;23.50;55.70;;;;;;5034513;28;20184;-67
2023/06/30 10:01:59;;;;;;;2.80;1.60;;;23.40;55.80;;;;;;5033885;28;20194;-68
2023/06/30 10:04:25;;;;;;;2.13;1.50;;;23.50;55.80;;;;;;5034633;28;20179;-66
2023/06/30 10:06:51;;;;;;;2.78;1.63;;;23.40;55.80;;;;;;5034675;28;20172;-67
2023/06/30 10:09:19;;;;;;;2.05;1.30;;;23.40;56.10;;;;;;5033778;28;20183;-67
2023/06/30 10:11:45;;;;;;;2.17;1.30;;;23.30;56.20;;;;;;5033564;28;20188;-67
2023/06/30 10:14:13;;;;;;;2.15;1.35;;;23.30;56.40;;;;;;5033147;28;20205;-67
2023/06/30 10:16:39;;;;;;;1.73;1.42;;;23.30;56.40;;;;;;5032683;28;20179;-66
2023/06/30 10:19:05;;;;;;;1.83;1.60;;;23.40;56.40;;;;;;5033088;28;20172;-67
2023/06/30 10:21:31;;;;;;;2.95;1.40;;;23.40;56.40;;;;;;5033181;28;20180;-67
2023/06/30 10:23:57;;;;;;;4.35;1.50;;;23.30;56.50;;;;;;5032121;28;20591;-66
2023/06/30 10:26:22;;;;;;;1.35;1.20;;;23.30;57.30;;;;;;5033010;28;20524;-66
2023/06/30 10:28:48;;;;;;;2.47;1.20;;;23.30;56.80;;;;;;5032907;28;20172;-66
2023/06/30 10:31:13;;;;;;;1.58;1.13;;;23.30;56.90;;;;;;5032072;28;20180;-67
2023/06/30 10:33:39;;;;;;;1.52;1.30;;;23.20;56.80;;;;;;5034231;28;20643;-68
2023/06/30 10:36:05;;;;;;;2.30;1.45;;;23.30;56.90;;;;;;5032741;28;20184;-68
2023/06/30 10:38:31;;;;;;;2.13;1.10;;;23.30;56.80;;;;;;5031753;28;20221;-67
2023/06/30 10:41:12;;;;;;;2.75;1.52;;;23.30;57.50;;;;;;5032874;28;20175;-68
2023/06/30 10:44:10;;;;;;;1.52;1.40;;;23.30;56.90;;;;;;5033156;28;20183;-67
2023/06/30 10:46:48;;;;;;;2.92;1.20;;;23.30;56.90;;;;;;5021820;28;20187;-67
2023/06/30 10:49:31;;;;;;;2.35;1.30;;;23.20;57.00;;;;;;5033472;28;20175;-67
2023/06/30 10:51:59;;;;;;;2.60;1.48;;;23.20;57.10;;;;;;5032947;28;20232;-67
2023/06/30 10:54:31;;;;;;;1.38;1.27;;;23.20;57.10;;;;;;5033880;28;20274;-66
2023/06/30 10:57:05;;;;;;;2.75;1.48;;;23.20;57.10;;;;;;5032133;28;20575;-67
2023/06/30 10:59:40;;;;;;;2.97;1.50;;;23.20;57.10;;;;;;5032966;28;20185;-67
2023/06/30 11:02:10;;;;;;;1.58;1.33;;;23.30;57.90;;;;;;5033273;28;20179;-68
2023/06/30 11:04:36;;;;;;;1.35;1.08;;;23.40;57.10;;;;;;5033135;28;20222;-67
2023/06/30 11:07:02;;;;;;;2.55;1.40;;;23.40;57.00;;;;;;5033407;28;20211;-68
2023/06/30 11:09:48;;;;;;;1.33;1.23;;;23.40;56.90;;;;;;5032526;28;20204;-67
2023/06/30 11:12:18;;;;;;;2.08;1.45;;;23.50;56.90;;;;;;5031611;28;20176;-67
2023/06/30 11:14:57;;;;;;;2.00;1.40;;;23.50;57.40;;;;;;5033497;28;20220;-66
2023/06/30 11:18:01;;;;;;;1.83;1.33;;;23.60;56.80;;;;;;5033513;28;20179;-67
2023/06/30 11:20:26;;;;;;;2.13;1.58;;;23.50;56.70;;;;;;4990952;28;20251;-66
2023/06/30 11:23:02;;;;;;;1.60;1.20;;;23.60;56.80;;;;;;5024668;28;20604;-66
2023/06/30 11:25:29;;;;;;;1.17;1.08;;;23.60;57.40;;;;;;5033341;28;20210;-66
2023/06/30 11:27:55;;;;;;;1.40;1.13;;;23.50;56.90;;;;;;5032371;28;20554;-66
2023/06/30 11:30:21;;;;;;;1.42;1.20;;;23.50;57.00;;;;;;5033065;28;20702;-67
2023/06/30 11:32:47;;;;;;;1.20;1.10;;;23.40;57.10;;;;;;5031179;28;20203;-68
2023/06/30 11:35:13;;;;;;;1.80;1.23;;;23.40;57.30;;;;;;5032883;28;20212;-68
2023/06/30 11:37:38;;;;;;;1.45;1.17;;;23.40;57.40;;;;;;5033156;28;20237;-67
2023/06/30 11:40:05;;;;;;;1.80;1.65;;;23.30;57.40;;;;;;5030694;28;21093;-67
2023/06/30 11:42:32;;;;;;;2.17;1.38;;;23.30;57.50;;;;;;5033051;28;20175;-67
2023/06/30 11:44:57;;;;;;;2.25;1.13;;;23.30;57.40;;;;;;5032765;28;20535;-66
2023/06/30 11:47:23;;;;;;;2.08;1.60;;;23.30;57.40;;;;;;5031988;28;20626;-67
2023/06/30 11:49:48;;;;;;;1.50;1.40;;;23.40;57.40;;;;;;5040710;28;20546;-66
2023/06/30 11:52:14;;;;;;;1.27;1.05;;;23.50;57.30;;;;;;5072653;28;20648;-66
2023/06/30 11:54:40;;;;;;;2.15;1.40;;;23.40;57.30;;;;;;5072142;28;20219;-66
2023/06/30 11:57:06;;;;;;;1.75;1.20;;;23.40;57.50;;;;;;5072719;28;20166;-66
2023/06/30 11:59:31;;;;;;;1.48;1.38;;;23.30;57.60;;;;;;5072789;28;20248;-67
2023/06/30 12:01:57;;;;;;;3.08;1.20;;;23.30;57.70;;;;;;5071495;28;20170;-67
2023/06/30 12:04:22;;;;;;;1.50;1.40;;;23.20;57.60;;;;;;5071453;28;20179;-67
2023/06/30 12:06:48;;;;;;;1.20;1.10;;;23.20;57.70;;;;;;5072561;28;20170;-67
2023/06/30 12:09:14;;;;;;;1.92;1.17;;;23.30;57.70;;;;;;5071885;28;20186;-67
2023/06/30 12:11:46;;;;;;;2.50;1.23;;;23.30;57.70;;;;;;5072455;28;20513;-67
2023/06/30 12:14:15;;;;;;;1.20;1.10;;;23.30;57.50;;;;;;5071041;28;20244;-67
2023/06/30 12:16:49;;;;;;;1.48;1.30;;;23.30;57.50;;;;;;5071790;28;20253;-66
2023/06/30 12:19:15;;;;;;;1.10;1.10;;;23.30;57.50;;;;;;5072249;28;20182;-66
2023/06/30 12:21:59;;;;;;;2.78;1.23;;;23.30;57.60;;;;;;5074601;28;20182;-66
2023/06/30 12:24:29;;;;;;;1.23;0.88;;;23.20;57.60;;;;;;5076321;28;20556;-66
2023/06/30 12:26:55;;;;;;;1.30;1.20;;;23.30;57.40;;;;;;5076563;28;20253;-66
2023/06/30 12:29:20;;;;;;;1.88;1.20;;;23.50;57.30;;;;;;5076000;28;20739;-67
2023/06/30 12:31:47;;;;;;;1.70;1.45;;;23.50;57.20;;;;;;5076376;28;20220;-67
2023/06/30 12:34:13;;;;;;;1.98;1.50;;;23.60;57.70;;;;;;5076210;28;20280;-68
2023/06/30 12:36:40;;;;;;;1.95;1.25;;;23.60;57.10;;;;;;5075799;28;20262;-67
2023/06/30 12:39:05;;;;;;;1.02;0.98;;;23.70;57.00;;;;;;5075700;28;20696;-67
2023/06/30 12:41:31;;;;;;;1.25;1.15;;;23.70;56.90;;;;;;5074994;28;20213;-67
2023/06/30 12:43:58;;;;;;;1.20;1.10;;;23.70;56.80;;;;;;5075179;28;20182;-67
2023/06/30 12:46:24;;;;;;;2.40;1.40;;;23.80;56.70;;;;;;5076301;28;20185;-67